sensor_id;sensor_type;location;lat;lon;timestamp;pressure;altitude;pressure_sealevel;temperature;humidity
11525;BME280;5819;49.648;8.330;2023-07-13T00:00:45;100337.72;;;20.24;56.79
11525;BME280;5819;49.648;8.330;2023-07-13T00:03:13;100343.38;;;20.20;56.80
11525;BME280;5819;49.648;8.330;2023-07-13T00:05:41;100340.88;;;20.29;56.82
11525;BME280;5819;49.648;8.330;2023-07-13T00:08:09;100341.91;;;20.27;57.29
11525;BME280;5819;49.648;8.330;2023-07-13T00:10:41;100344.81;;;20.24;57.04
11525;BME280;5819;49.648;8.330;2023-07-13T00:13:11;100347.38;;;20.14;57.32
11525;BME280;5819;49.648;8.330;2023-07-13T00:15:38;100351.63;;;20.05;58.31
11525;BME280;5819;49.648;8.330;2023-07-13T00:18:07;100354.97;;;20.07;58.05
11525;BME280;5819;49.648;8.330;2023-07-13T00:20:35;100346.72;;;20.01;57.40
11525;BME280;5819;49.648;8.330;2023-07-13T00:23:03;100347.78;;;19.98;58.13
11525;BME280;5819;49.648;8.330;2023-07-13T00:25:31;100353.19;;;19.97;58.47
11525;BME280;5819;49.648;8.330;2023-07-13T00:27:59;100351.53;;;19.96;58.36
11525;BME280;5819;49.648;8.330;2023-07-13T00:30:28;100353.47;;;19.83;59.72
11525;BME280;5819;49.648;8.330;2023-07-13T00:32:57;100367.66;;;19.59;59.52
11525;BME280;5819;49.648;8.330;2023-07-13T00:35:43;100367.94;;;19.45;60.26
11525;BME280;5819;49.648;8.330;2023-07-13T00:38:11;100366.56;;;19.40;61.96
11525;BME280;5819;49.648;8.330;2023-07-13T00:40:40;100365.97;;;19.14;61.67
11525;BME280;5819;49.648;8.330;2023-07-13T00:43:17;100367.75;;;19.02;62.89
11525;BME280;5819;49.648;8.330;2023-07-13T00:46:14;100374.34;;;18.97;62.91
11525;BME280;5819;49.648;8.330;2023-07-13T00:48:44;100367.38;;;18.85;62.96
11525;BME280;5819;49.648;8.330;2023-07-13T00:51:16;100377.69;;;18.77;63.73
11525;BME280;5819;49.648;8.330;2023-07-13T00:53:45;100379.22;;;18.68;63.99
11525;BME280;5819;49.648;8.330;2023-07-13T00:56:13;100371.75;;;18.62;63.84
11525;BME280;5819;49.648;8.330;2023-07-13T00:58:43;100375.22;;;18.62;63.51
11525;BME280;5819;49.648;8.330;2023-07-13T01:01:13;100380.16;;;18.67;64.29
11525;BME280;5819;49.648;8.330;2023-07-13T01:03:41;100377.50;;;18.56;64.26
11525;BME280;5819;49.648;8.330;2023-07-13T01:06:09;100376.53;;;18.57;64.71
11525;BME280;5819;49.648;8.330;2023-07-13T01:08:38;100369.91;;;18.51;64.36
11525;BME280;5819;49.648;8.330;2023-07-13T01:11:06;100373.22;;;18.42;64.95
11525;BME280;5819;49.648;8.330;2023-07-13T01:13:35;100371.69;;;18.51;64.34
11525;BME280;5819;49.648;8.330;2023-07-13T01:16:11;100368.56;;;18.69;63.27
11525;BME280;5819;49.648;8.330;2023-07-13T01:18:41;100367.31;;;18.62;63.07
11525;BME280;5819;49.648;8.330;2023-07-13T01:21:11;100375.34;;;18.61;63.20
11525;BME280;5819;49.648;8.330;2023-07-13T01:23:39;100377.38;;;18.57;64.75
11525;BME280;5819;49.648;8.330;2023-07-13T01:26:07;100376.25;;;18.49;65.87
11525;BME280;5819;49.648;8.330;2023-07-13T01:28:36;100373.09;;;18.44;65.18
11525;BME280;5819;49.648;8.330;2023-07-13T01:31:07;100374.41;;;18.38;66.23
11525;BME280;5819;49.648;8.330;2023-07-13T01:33:36;100384.38;;;18.22;66.74
11525;BME280;5819;49.648;8.330;2023-07-13T01:36:06;100387.28;;;18.06;66.77
11525;BME280;5819;49.648;8.330;2023-07-13T01:38:38;100389.81;;;18.08;67.03
11525;BME280;5819;49.648;8.330;2023-07-13T01:41:09;100386.03;;;18.12;67.09
11525;BME280;5819;49.648;8.330;2023-07-13T01:43:37;100387.34;;;18.17;66.73
11525;BME280;5819;49.648;8.330;2023-07-13T01:46:06;100383.25;;;18.13;67.59
11525;BME280;5819;49.648;8.330;2023-07-13T01:48:49;100386.25;;;18.09;66.34
11525;BME280;5819;49.648;8.330;2023-07-13T01:51:19;100390.53;;;18.10;66.24
11525;BME280;5819;49.648;8.330;2023-07-13T01:53:49;100380.63;;;18.13;66.54
11525;BME280;5819;49.648;8.330;2023-07-13T01:56:17;100391.06;;;18.15;66.82
11525;BME280;5819;49.648;8.330;2023-07-13T01:58:46;100380.75;;;18.12;65.70
11525;BME280;5819;49.648;8.330;2023-07-13T02:01:14;100380.81;;;18.23;64.93
11525;BME280;5819;49.648;8.330;2023-07-13T02:03:42;100386.72;;;18.38;64.89
11525;BME280;5819;49.648;8.330;2023-07-13T02:06:10;100398.28;;;18.48;64.75
11525;BME280;5819;49.648;8.330;2023-07-13T02:08:40;100390.38;;;18.48;65.00
11525;BME280;5819;49.648;8.330;2023-07-13T02:11:09;100397.53;;;18.46;65.18
11525;BME280;5819;49.648;8.330;2023-07-13T02:13:37;100399.56;;;18.42;65.73
11525;BME280;5819;49.648;8.330;2023-07-13T02:16:05;100398.59;;;18.43;65.74
11525;BME280;5819;49.648;8.330;2023-07-13T02:18:33;100395.19;;;18.30;66.04
11525;BME280;5819;49.648;8.330;2023-07-13T02:21:01;100403.38;;;18.14;66.46
11525;BME280;5819;49.648;8.330;2023-07-13T02:23:29;100393.53;;;18.29;65.02
11525;BME280;5819;49.648;8.330;2023-07-13T02:25:58;100391.16;;;18.37;64.63
11525;BME280;5819;49.648;8.330;2023-07-13T02:28:28;100398.59;;;18.43;64.40
11525;BME280;5819;49.648;8.330;2023-07-13T02:31:04;100396.34;;;18.50;65.06
11525;BME280;5819;49.648;8.330;2023-07-13T02:33:32;100398.72;;;18.42;65.61
11525;BME280;5819;49.648;8.330;2023-07-13T02:36:00;100402.72;;;18.23;67.38
11525;BME280;5819;49.648;8.330;2023-07-13T02:38:27;100404.81;;;17.95;67.14
11525;BME280;5819;49.648;8.330;2023-07-13T02:40:55;100414.16;;;17.75;67.99
11525;BME280;5819;49.648;8.330;2023-07-13T02:43:23;100419.66;;;17.59;68.14
11525;BME280;5819;49.648;8.330;2023-07-13T02:45:53;100410.91;;;17.46;69.48
11525;BME280;5819;49.648;8.330;2023-07-13T02:48:21;100407.78;;;17.28;70.41
11525;BME280;5819;49.648;8.330;2023-07-13T02:50:50;100402.81;;;17.24;69.73
11525;BME280;5819;49.648;8.330;2023-07-13T02:53:19;100405.56;;;17.22;69.82
11525;BME280;5819;49.648;8.330;2023-07-13T02:55:47;100409.97;;;17.22;70.13
11525;BME280;5819;49.648;8.330;2023-07-13T02:58:15;100406.00;;;17.16;70.21
11525;BME280;5819;49.648;8.330;2023-07-13T03:00:43;100407.78;;;17.16;70.03
11525;BME280;5819;49.648;8.330;2023-07-13T03:03:14;100408.94;;;17.12;71.13
11525;BME280;5819;49.648;8.330;2023-07-13T03:05:44;100404.59;;;17.11;71.25
11525;BME280;5819;49.648;8.330;2023-07-13T03:08:19;100406.59;;;17.07;71.86
11525;BME280;5819;49.648;8.330;2023-07-13T03:10:59;100411.53;;;16.99;72.21
11525;BME280;5819;49.648;8.330;2023-07-13T03:13:29;100418.25;;;16.91;72.51
11525;BME280;5819;49.648;8.330;2023-07-13T03:15:58;100423.53;;;17.03;71.71
11525;BME280;5819;49.648;8.330;2023-07-13T03:18:28;100417.00;;;16.83;72.51
11525;BME280;5819;49.648;8.330;2023-07-13T03:21:02;100422.22;;;16.71;73.27
11525;BME280;5819;49.648;8.330;2023-07-13T03:23:31;100426.06;;;16.53;73.67
11525;BME280;5819;49.648;8.330;2023-07-13T03:26:05;100428.28;;;16.59;74.23
11525;BME280;5819;49.648;8.330;2023-07-13T03:28:34;100430.41;;;16.39;75.01
11525;BME280;5819;49.648;8.330;2023-07-13T03:31:05;100434.38;;;16.32;75.10
11525;BME280;5819;49.648;8.330;2023-07-13T03:33:36;100435.13;;;16.34;74.35
11525;BME280;5819;49.648;8.330;2023-07-13T03:36:06;100440.28;;;16.36;74.12
11525;BME280;5819;49.648;8.330;2023-07-13T03:38:35;100441.41;;;16.32;74.67
11525;BME280;5819;49.648;8.330;2023-07-13T03:41:03;100438.28;;;16.39;74.58
11525;BME280;5819;49.648;8.330;2023-07-13T03:43:31;100438.09;;;16.43;74.71
11525;BME280;5819;49.648;8.330;2023-07-13T03:45:59;100430.53;;;16.51;74.45
11525;BME280;5819;49.648;8.330;2023-07-13T03:48:27;100437.56;;;16.64;74.59
11525;BME280;5819;49.648;8.330;2023-07-13T03:50:56;100438.22;;;16.80;73.54
11525;BME280;5819;49.648;8.330;2023-07-13T03:53:24;100430.66;;;17.01;73.40
11525;BME280;5819;49.648;8.330;2023-07-13T03:55:52;100436.56;;;17.17;72.47
11525;BME280;5819;49.648;8.330;2023-07-13T03:58:31;100431.44;;;17.28;72.37
11525;BME280;5819;49.648;8.330;2023-07-13T04:01:11;100438.34;;;17.42;70.25
11525;BME280;5819;49.648;8.330;2023-07-13T04:03:39;100431.09;;;17.46;69.74
11525;BME280;5819;49.648;8.330;2023-07-13T04:06:14;100438.44;;;17.53;69.86
11525;BME280;5819;49.648;8.330;2023-07-13T04:08:48;100447.19;;;17.54;68.75
11525;BME280;5819;49.648;8.330;2023-07-13T04:11:17;100433.84;;;17.57;68.18
11525;BME280;5819;49.648;8.330;2023-07-13T04:13:46;100439.44;;;17.65;68.22
11525;BME280;5819;49.648;8.330;2023-07-13T04:16:15;100439.31;;;17.66;68.58
11525;BME280;5819;49.648;8.330;2023-07-13T04:18:44;100437.53;;;17.67;68.47
11525;BME280;5819;49.648;8.330;2023-07-13T04:21:14;100436.97;;;17.74;68.32
11525;BME280;5819;49.648;8.330;2023-07-13T04:23:43;100440.47;;;17.75;68.29
11525;BME280;5819;49.648;8.330;2023-07-13T04:26:11;100443.31;;;17.72;68.63
11525;BME280;5819;49.648;8.330;2023-07-13T04:28:39;100439.69;;;17.86;67.89
11525;BME280;5819;49.648;8.330;2023-07-13T04:31:07;100436.97;;;17.87;68.50
11525;BME280;5819;49.648;8.330;2023-07-13T04:33:35;100440.22;;;17.91;68.67
11525;BME280;5819;49.648;8.330;2023-07-13T04:36:04;100442.97;;;17.89;68.89
11525;BME280;5819;49.648;8.330;2023-07-13T04:38:33;100445.06;;;17.97;67.98
11525;BME280;5819;49.648;8.330;2023-07-13T04:41:03;100438.00;;;17.97;67.82
11525;BME280;5819;49.648;8.330;2023-07-13T04:43:31;100446.00;;;17.96;67.83
11525;BME280;5819;49.648;8.330;2023-07-13T04:46:03;100450.19;;;17.98;67.89
11525;BME280;5819;49.648;8.330;2023-07-13T04:48:32;100458.19;;;18.09;66.76
11525;BME280;5819;49.648;8.330;2023-07-13T04:51:01;100454.34;;;18.13;66.43
11525;BME280;5819;49.648;8.330;2023-07-13T04:53:30;100454.75;;;18.20;66.11
11525;BME280;5819;49.648;8.330;2023-07-13T04:56:00;100458.63;;;18.27;65.00
11525;BME280;5819;49.648;8.330;2023-07-13T04:58:28;100448.66;;;18.43;64.64
11525;BME280;5819;49.648;8.330;2023-07-13T05:00:59;100448.94;;;18.51;64.86
11525;BME280;5819;49.648;8.330;2023-07-13T05:03:28;100454.75;;;18.56;64.44
11525;BME280;5819;49.648;8.330;2023-07-13T05:05:57;100455.72;;;18.66;65.02
11525;BME280;5819;49.648;8.330;2023-07-13T05:08:26;100456.00;;;18.75;65.63
11525;BME280;5819;49.648;8.330;2023-07-13T05:10:54;100461.50;;;18.72;66.53
11525;BME280;5819;49.648;8.330;2023-07-13T05:13:23;100464.88;;;18.74;65.49
11525;BME280;5819;49.648;8.330;2023-07-13T05:15:57;100457.22;;;18.82;66.66
11525;BME280;5819;49.648;8.330;2023-07-13T05:18:25;100469.69;;;18.80;66.13
11525;BME280;5819;49.648;8.330;2023-07-13T05:20:58;100469.19;;;18.75;65.71
11525;BME280;5819;49.648;8.330;2023-07-13T05:23:26;100473.50;;;18.76;64.87
11525;BME280;5819;49.648;8.330;2023-07-13T05:25:55;100479.63;;;18.76;66.22
11525;BME280;5819;49.648;8.330;2023-07-13T05:28:24;100482.78;;;18.81;65.08
11525;BME280;5819;49.648;8.330;2023-07-13T05:30:53;100483.25;;;18.86;65.30
11525;BME280;5819;49.648;8.330;2023-07-13T05:33:22;100484.13;;;18.98;65.25
11525;BME280;5819;49.648;8.330;2023-07-13T05:35:50;100479.09;;;19.06;64.78
11525;BME280;5819;49.648;8.330;2023-07-13T05:38:18;100476.25;;;19.09;64.38
11525;BME280;5819;49.648;8.330;2023-07-13T05:40:46;100477.22;;;19.08;64.75
11525;BME280;5819;49.648;8.330;2023-07-13T05:43:15;100485.13;;;19.08;64.90
11525;BME280;5819;49.648;8.330;2023-07-13T05:45:44;100481.06;;;19.15;64.58
11525;BME280;5819;49.648;8.330;2023-07-13T05:48:12;100472.81;;;19.42;64.57
11525;BME280;5819;49.648;8.330;2023-07-13T05:50:40;100479.81;;;19.43;63.31
11525;BME280;5819;49.648;8.330;2023-07-13T05:53:09;100476.72;;;19.60;63.15
11525;BME280;5819;49.648;8.330;2023-07-13T05:55:41;100476.59;;;19.84;62.68
11525;BME280;5819;49.648;8.330;2023-07-13T05:58:09;100467.13;;;20.46;61.34
11525;BME280;5819;49.648;8.330;2023-07-13T06:00:37;100459.19;;;20.78;59.72
11525;BME280;5819;49.648;8.330;2023-07-13T06:03:06;100464.50;;;20.46;58.65
11525;BME280;5819;49.648;8.330;2023-07-13T06:05:35;100462.38;;;20.18;58.12
11525;BME280;5819;49.648;8.330;2023-07-13T06:08:05;100469.72;;;20.15;59.04
11525;BME280;5819;49.648;8.330;2023-07-13T06:10:33;100471.19;;;20.07;59.38
11525;BME280;5819;49.648;8.330;2023-07-13T06:13:01;100475.63;;;20.29;59.14
11525;BME280;5819;49.648;8.330;2023-07-13T06:15:29;100485.06;;;20.43;59.42
11525;BME280;5819;49.648;8.330;2023-07-13T06:17:58;100473.56;;;20.33;58.51
11525;BME280;5819;49.648;8.330;2023-07-13T06:20:28;100466.84;;;20.06;59.20
11525;BME280;5819;49.648;8.330;2023-07-13T06:22:56;100478.00;;;20.32;59.30
11525;BME280;5819;49.648;8.330;2023-07-13T06:25:26;100477.97;;;20.43;59.04
11525;BME280;5819;49.648;8.330;2023-07-13T06:27:54;100481.13;;;20.37;58.85
11525;BME280;5819;49.648;8.330;2023-07-13T06:30:23;100481.09;;;20.48;59.20
11525;BME280;5819;49.648;8.330;2023-07-13T06:32:51;100473.59;;;20.65;58.88
11525;BME280;5819;49.648;8.330;2023-07-13T06:35:19;100468.13;;;20.77;57.61
11525;BME280;5819;49.648;8.330;2023-07-13T06:37:49;100476.91;;;20.78;57.24
11525;BME280;5819;49.648;8.330;2023-07-13T06:40:18;100477.22;;;20.84;57.58
11525;BME280;5819;49.648;8.330;2023-07-13T06:42:45;100479.94;;;20.94;57.17
11525;BME280;5819;49.648;8.330;2023-07-13T06:45:13;100479.41;;;21.00;57.17
11525;BME280;5819;49.648;8.330;2023-07-13T06:47:41;100477.84;;;21.29;57.11
11525;BME280;5819;49.648;8.330;2023-07-13T06:50:09;100480.22;;;21.32;56.87
11525;BME280;5819;49.648;8.330;2023-07-13T06:52:37;100487.00;;;21.46;56.66
11525;BME280;5819;49.648;8.330;2023-07-13T06:55:07;100490.66;;;21.55;55.90
11525;BME280;5819;49.648;8.330;2023-07-13T06:57:36;100488.59;;;21.58;57.23
11525;BME280;5819;49.648;8.330;2023-07-13T07:00:05;100489.50;;;21.47;56.49
11525;BME280;5819;49.648;8.330;2023-07-13T07:02:36;100491.13;;;21.39;56.57
11525;BME280;5819;49.648;8.330;2023-07-13T07:05:05;100501.97;;;21.15;56.61
11525;BME280;5819;49.648;8.330;2023-07-13T07:07:32;100497.03;;;21.11;56.51
11525;BME280;5819;49.648;8.330;2023-07-13T07:10:01;100498.66;;;21.02;57.02
11525;BME280;5819;49.648;8.330;2023-07-13T07:12:31;100498.78;;;21.00;56.37
11525;BME280;5819;49.648;8.330;2023-07-13T07:14:58;100507.88;;;21.08;57.07
11525;BME280;5819;49.648;8.330;2023-07-13T07:17:26;100500.44;;;21.13;56.88
11525;BME280;5819;49.648;8.330;2023-07-13T07:19:54;100502.63;;;21.28;55.62
11525;BME280;5819;49.648;8.330;2023-07-13T07:22:22;100493.44;;;21.53;54.37
11525;BME280;5819;49.648;8.330;2023-07-13T07:24:53;100500.16;;;21.87;54.75
11525;BME280;5819;49.648;8.330;2023-07-13T07:27:22;100501.69;;;21.60;55.28
11525;BME280;5819;49.648;8.330;2023-07-13T07:29:54;100498.16;;;21.80;54.01
11525;BME280;5819;49.648;8.330;2023-07-13T07:32:28;100503.19;;;21.83;53.53
11525;BME280;5819;49.648;8.330;2023-07-13T07:35:16;100492.91;;;21.89;53.60
11525;BME280;5819;49.648;8.330;2023-07-13T07:37:44;100498.22;;;21.89;54.19
11525;BME280;5819;49.648;8.330;2023-07-13T07:40:15;100494.53;;;22.11;54.54
11525;BME280;5819;49.648;8.330;2023-07-13T07:42:46;100489.78;;;22.05;53.88
11525;BME280;5819;49.648;8.330;2023-07-13T07:45:15;100493.53;;;22.03;53.76
11525;BME280;5819;49.648;8.330;2023-07-13T07:47:43;100494.84;;;22.18;53.04
11525;BME280;5819;49.648;8.330;2023-07-13T07:50:11;100481.38;;;22.50;52.56
11525;BME280;5819;49.648;8.330;2023-07-13T07:52:39;100489.34;;;22.50;51.86
11525;BME280;5819;49.648;8.330;2023-07-13T07:55:07;100491.28;;;22.48;51.80
11525;BME280;5819;49.648;8.330;2023-07-13T07:57:39;100490.88;;;22.43;52.36
11525;BME280;5819;49.648;8.330;2023-07-13T08:00:10;100491.97;;;22.40;51.81
11525;BME280;5819;49.648;8.330;2023-07-13T08:02:43;100499.09;;;22.49;52.08
11525;BME280;5819;49.648;8.330;2023-07-13T08:05:14;100476.53;;;22.93;51.06
11525;BME280;5819;49.648;8.330;2023-07-13T08:07:45;100472.91;;;22.94;51.15
11525;BME280;5819;49.648;8.330;2023-07-13T08:10:13;100487.16;;;23.03;52.18
11525;BME280;5819;49.648;8.330;2023-07-13T08:12:41;100484.91;;;22.79;51.82
11525;BME280;5819;49.648;8.330;2023-07-13T08:15:28;100489.22;;;22.80;51.23
11525;BME280;5819;49.648;8.330;2023-07-13T08:17:58;100489.78;;;22.83;51.35
11525;BME280;5819;49.648;8.330;2023-07-13T08:20:25;100490.78;;;23.02;51.48
11525;BME280;5819;49.648;8.330;2023-07-13T08:22:53;100480.28;;;23.10;49.81
11525;BME280;5819;49.648;8.330;2023-07-13T08:25:21;100481.03;;;23.39;50.11
11525;BME280;5819;49.648;8.330;2023-07-13T08:27:49;100472.41;;;23.37;49.54
11525;BME280;5819;49.648;8.330;2023-07-13T08:30:18;100479.00;;;23.23;50.39
11525;BME280;5819;49.648;8.330;2023-07-13T08:32:46;100479.91;;;23.61;50.33
11525;BME280;5819;49.648;8.330;2023-07-13T08:35:15;100471.94;;;23.61;49.38
11525;BME280;5819;49.648;8.330;2023-07-13T08:37:43;100465.28;;;23.38;49.73
11525;BME280;5819;49.648;8.330;2023-07-13T08:40:12;100461.84;;;23.64;49.48
11525;BME280;5819;49.648;8.330;2023-07-13T08:42:44;100459.47;;;23.71;49.36
11525;BME280;5819;49.648;8.330;2023-07-13T08:45:17;100466.09;;;23.85;50.19
11525;BME280;5819;49.648;8.330;2023-07-13T08:47:52;100461.22;;;23.80;48.87
11525;BME280;5819;49.648;8.330;2023-07-13T08:50:27;100467.66;;;23.87;49.16
11525;BME280;5819;49.648;8.330;2023-07-13T08:53:13;100458.50;;;24.27;48.11
11525;BME280;5819;49.648;8.330;2023-07-13T08:55:43;100464.88;;;24.34;48.80
11525;BME280;5819;49.648;8.330;2023-07-13T08:58:13;100462.34;;;24.14;48.26
11525;BME280;5819;49.648;8.330;2023-07-13T09:00:48;100465.53;;;24.36;48.50
11525;BME280;5819;49.648;8.330;2023-07-13T09:03:22;100460.25;;;24.53;47.32
11525;BME280;5819;49.648;8.330;2023-07-13T09:05:54;100459.56;;;24.34;47.16
11525;BME280;5819;49.648;8.330;2023-07-13T09:08:41;100458.56;;;24.35;46.44
11525;BME280;5819;49.648;8.330;2023-07-13T09:11:20;100456.00;;;24.43;46.72
11525;BME280;5819;49.648;8.330;2023-07-13T09:13:57;100444.47;;;24.87;45.93
11525;BME280;5819;49.648;8.330;2023-07-13T09:16:28;100451.63;;;25.12;45.84
11525;BME280;5819;49.648;8.330;2023-07-13T09:19:02;100436.06;;;25.51;44.32
11525;BME280;5819;49.648;8.330;2023-07-13T09:21:37;100437.00;;;25.76;43.55
11525;BME280;5819;49.648;8.330;2023-07-13T09:24:28;100439.19;;;25.81;42.45
11525;BME280;5819;49.648;8.330;2023-07-13T09:26:57;100439.84;;;25.15;43.24
11525;BME280;5819;49.648;8.330;2023-07-13T09:29:28;100445.81;;;24.91;44.13
11525;BME280;5819;49.648;8.330;2023-07-13T09:31:58;100452.13;;;24.90;44.20
11525;BME280;5819;49.648;8.330;2023-07-13T09:34:29;100442.91;;;24.49;44.48
11525;BME280;5819;49.648;8.330;2023-07-13T09:36:59;100442.06;;;25.02;44.00
11525;BME280;5819;49.648;8.330;2023-07-13T09:39:30;100438.03;;;25.24;43.93
11525;BME280;5819;49.648;8.330;2023-07-13T09:42:07;100434.63;;;25.31;43.29
11525;BME280;5819;49.648;8.330;2023-07-13T09:44:52;100427.41;;;25.83;42.53
11525;BME280;5819;49.648;8.330;2023-07-13T09:47:23;100431.66;;;26.10;42.65
11525;BME280;5819;49.648;8.330;2023-07-13T09:49:58;100426.34;;;26.18;41.55
11525;BME280;5819;49.648;8.330;2023-07-13T09:52:40;100430.25;;;26.40;42.34
11525;BME280;5819;49.648;8.330;2023-07-13T09:55:24;100414.59;;;26.85;40.26
11525;BME280;5819;49.648;8.330;2023-07-13T09:57:53;100420.59;;;27.12;39.94
11525;BME280;5819;49.648;8.330;2023-07-13T10:00:23;100414.09;;;26.98;39.64
11525;BME280;5819;49.648;8.330;2023-07-13T10:03:03;100407.28;;;27.89;38.48
11525;BME280;5819;49.648;8.330;2023-07-13T10:05:39;100389.44;;;29.33;36.28
11525;BME280;5819;49.648;8.330;2023-07-13T10:08:17;100388.97;;;29.59;36.36
11525;BME280;5819;49.648;8.330;2023-07-13T10:10:46;100390.34;;;30.20;34.78
11525;BME280;5819;49.648;8.330;2023-07-13T10:13:25;100392.31;;;29.61;35.05
11525;BME280;5819;49.648;8.330;2023-07-13T10:15:55;100391.56;;;29.67;36.22
11525;BME280;5819;49.648;8.330;2023-07-13T10:18:24;100392.63;;;29.37;35.85
11525;BME280;5819;49.648;8.330;2023-07-13T10:21:00;100402.09;;;29.24;36.64
11525;BME280;5819;49.648;8.330;2023-07-13T10:24:03;100408.03;;;29.35;36.78
11525;BME280;5819;49.648;8.330;2023-07-13T10:26:34;100408.28;;;28.73;37.35
11525;BME280;5819;49.648;8.330;2023-07-13T10:29:06;100419.22;;;28.18;38.19
11525;BME280;5819;49.648;8.330;2023-07-13T10:31:38;100411.16;;;28.71;37.35
11525;BME280;5819;49.648;8.330;2023-07-13T10:34:09;100401.75;;;29.57;36.24
11525;BME280;5819;49.648;8.330;2023-07-13T10:36:40;100396.22;;;29.44;36.17
11525;BME280;5819;49.648;8.330;2023-07-13T10:39:17;100409.09;;;29.25;36.80
11525;BME280;5819;49.648;8.330;2023-07-13T10:41:48;100391.34;;;29.98;35.88
11525;BME280;5819;49.648;8.330;2023-07-13T10:44:22;100392.00;;;30.00;36.13
11525;BME280;5819;49.648;8.330;2023-07-13T10:46:55;100388.19;;;30.73;36.04
11525;BME280;5819;49.648;8.330;2023-07-13T10:49:26;100369.81;;;31.79;34.59
11525;BME280;5819;49.648;8.330;2023-07-13T10:51:56;100378.97;;;31.44;34.23
11525;BME280;5819;49.648;8.330;2023-07-13T10:54:30;100372.84;;;31.56;32.50
11525;BME280;5819;49.648;8.330;2023-07-13T10:57:17;100375.41;;;31.02;33.53
11525;BME280;5819;49.648;8.330;2023-07-13T10:59:48;100373.56;;;31.44;32.35
11525;BME280;5819;49.648;8.330;2023-07-13T11:02:26;100385.25;;;30.67;32.99
11525;BME280;5819;49.648;8.330;2023-07-13T11:04:56;100384.63;;;31.21;32.77
11525;BME280;5819;49.648;8.330;2023-07-13T11:07:26;100405.50;;;29.77;34.53
11525;BME280;5819;49.648;8.330;2023-07-13T11:09:57;100393.06;;;29.40;34.68
11525;BME280;5819;49.648;8.330;2023-07-13T11:15:14;100416.72;;;28.16;36.53
11525;BME280;5819;49.648;8.330;2023-07-13T11:17:50;100421.88;;;27.48;37.97
11525;BME280;5819;49.648;8.330;2023-07-13T11:20:30;100430.56;;;26.37;39.05
11525;BME280;5819;49.648;8.330;2023-07-13T11:23:19;100435.75;;;26.38;39.98
11525;BME280;5819;49.648;8.330;2023-07-13T11:25:48;100412.63;;;27.59;38.02
11525;BME280;5819;49.648;8.330;2023-07-13T11:28:21;100405.72;;;28.79;36.06
11525;BME280;5819;49.648;8.330;2023-07-13T11:31:02;100381.75;;;29.15;34.44
11525;BME280;5819;49.648;8.330;2023-07-13T11:33:51;100370.16;;;29.73;33.45
11525;BME280;5819;49.648;8.330;2023-07-13T11:36:21;100382.00;;;29.94;34.42
11525;BME280;5819;49.648;8.330;2023-07-13T11:38:59;100366.13;;;30.56;32.64
11525;BME280;5819;49.648;8.330;2023-07-13T11:41:32;100371.25;;;30.08;33.32
11525;BME280;5819;49.648;8.330;2023-07-13T11:44:11;100399.78;;;28.69;36.01
11525;BME280;5819;49.648;8.330;2023-07-13T11:46:44;100406.09;;;28.00;36.48
11525;BME280;5819;49.648;8.330;2023-07-13T11:49:16;100417.19;;;27.26;36.66
11525;BME280;5819;49.648;8.330;2023-07-13T11:51:44;100428.91;;;26.60;38.15
11525;BME280;5819;49.648;8.330;2023-07-13T11:54:23;100418.94;;;26.04;38.40
11525;BME280;5819;49.648;8.330;2023-07-13T11:56:53;100440.09;;;25.97;39.92
11525;BME280;5819;49.648;8.330;2023-07-13T11:59:22;100431.50;;;26.12;39.74
11525;BME280;5819;49.648;8.330;2023-07-13T12:01:53;100433.91;;;26.39;40.65
11525;BME280;5819;49.648;8.330;2023-07-13T12:04:25;100445.94;;;26.43;40.56
11525;BME280;5819;49.648;8.330;2023-07-13T12:06:56;100435.28;;;26.59;39.12
11525;BME280;5819;49.648;8.330;2023-07-13T12:09:27;100432.91;;;26.80;39.30
11525;BME280;5819;49.648;8.330;2023-07-13T12:11:57;100435.13;;;26.93;38.87
11525;BME280;5819;49.648;8.330;2023-07-13T12:14:27;100432.78;;;26.90;39.27
11525;BME280;5819;49.648;8.330;2023-07-13T12:16:56;100428.44;;;26.97;38.52
11525;BME280;5819;49.648;8.330;2023-07-13T12:19:26;100432.59;;;26.67;37.85
11525;BME280;5819;49.648;8.330;2023-07-13T12:21:57;100418.84;;;27.43;37.18
11525;BME280;5819;49.648;8.330;2023-07-13T12:24:26;100410.28;;;28.25;35.78
11525;BME280;5819;49.648;8.330;2023-07-13T12:27:00;100419.63;;;28.29;36.29
11525;BME280;5819;49.648;8.330;2023-07-13T12:29:28;100430.47;;;27.66;37.69
11525;BME280;5819;49.648;8.330;2023-07-13T12:31:56;100435.59;;;27.05;38.00
11525;BME280;5819;49.648;8.330;2023-07-13T12:34:26;100450.56;;;26.41;39.01
11525;BME280;5819;49.648;8.330;2023-07-13T12:36:56;100446.09;;;26.49;39.36
11525;BME280;5819;49.648;8.330;2023-07-13T12:39:35;100453.31;;;26.97;39.00
11525;BME280;5819;49.648;8.330;2023-07-13T12:42:19;100453.63;;;26.62;40.05
11525;BME280;5819;49.648;8.330;2023-07-13T12:44:52;100464.13;;;26.47;40.24
11525;BME280;5819;49.648;8.330;2023-07-13T12:47:21;100463.59;;;26.44;40.03
11525;BME280;5819;49.648;8.330;2023-07-13T12:49:52;100467.88;;;26.29;40.27
11525;BME280;5819;49.648;8.330;2023-07-13T12:52:22;100462.78;;;26.43;39.98
11525;BME280;5819;49.648;8.330;2023-07-13T12:54:54;100465.13;;;26.54;40.13
11525;BME280;5819;49.648;8.330;2023-07-13T12:57:38;100464.78;;;26.74;40.50
11525;BME280;5819;49.648;8.330;2023-07-13T13:00:23;100462.47;;;26.71;40.16
11525;BME280;5819;49.648;8.330;2023-07-13T13:02:53;100460.28;;;26.74;40.40
11525;BME280;5819;49.648;8.330;2023-07-13T13:05:42;100461.81;;;26.93;39.17
11525;BME280;5819;49.648;8.330;2023-07-13T13:08:12;100460.97;;;26.92;39.43
11525;BME280;5819;49.648;8.330;2023-07-13T13:10:40;100460.13;;;26.68;39.73
11525;BME280;5819;49.648;8.330;2023-07-13T13:13:09;100473.63;;;26.08;40.48
11525;BME280;5819;49.648;8.330;2023-07-13T13:15:39;100477.81;;;26.11;41.66
11525;BME280;5819;49.648;8.330;2023-07-13T13:18:15;100476.63;;;26.05;41.22
11525;BME280;5819;49.648;8.330;2023-07-13T13:20:43;100483.97;;;26.03;41.53
11525;BME280;5819;49.648;8.330;2023-07-13T13:23:13;100483.66;;;26.14;41.67